Portada
METAR-TAF:

METAR-TAF

Aeroports :

Phrae, Tailàndia

latitud: 18-10N, longitud: 100-10E, altitud: 161 m

Observació

L'informe es va fer fa 11 hores i 14 minuts, a les 11:00 UTC
Vent 3 kt del Nord
Temperatura 29°C
Humitat 66%
Pressió 1009 hPa
Visibilitat 10 km o més
Escasses núvols a una alçada de 2200 ft
Núvols disperses a una alçada de 6000 ft

METAR: VTCP 121100Z 35003KT 9999 FEW022 SCT060 29/22 Q1009 NOSIG

Hora: 05:14 (22:14 UTC)

Pronòstic

L'informe es va fer fa 5 hores i 14 minuts, a les 17:00 UTC
Pronòstic vàlid del 12 a les 18 UTC al 13 a les 18 UTC
Vent 5 kt del Sud
Visibilitat 10 km o més
Escasses núvols a una alçada de 2500 ft
Temporalment
l' 13 a les 05 UTC al 13 a les 11 UTC
Vent 15 kt del Oest amb ràfegues de 25 kt
Visibilitat: 4000 m
Escasses núvols a una alçada de 2000 ft, Cumulonimbus.
Cel ennuvolat a una alçada de 2200 ft
tempesta, pluja

TAF: VTCP 121700Z 1218/1318 18005KT 9999 FEW025 TEMPO 1305/1311 27015G25KT 4000 TSRA FEW020CB BKN022

Observacions i pronòstics meteorològics de més de 4000 aeroports (METAR i TAF).

Les estacions disponibles són els punts grocs i vermells al mapa.

Posi el ratolí al punt desitjat per veure el nom de l'estació.

Feu clic per veure les observacions i els pronòstics meteorològics.

Per canviar el mapa: feu clic els botons verds amb una creu de color negre per apropar; al botó verd amb un guió per allunyar la imatge; o en les fletxes verdes per a mapes adjacents.


METAR-TAF: